sensor_id;sensor_type;location;lat;lon;timestamp;pressure;altitude;pressure_sealevel;temperature;humidity
41102;BME280;26845;50.190;19.178;2023-08-21T00:00:51;99177.64;;;20.76;83.75
41102;BME280;26845;50.190;19.178;2023-08-21T00:03:57;99179.33;;;20.72;83.77
41102;BME280;26845;50.190;19.178;2023-08-21T00:07:02;99181.73;;;20.61;83.74
41102;BME280;26845;50.190;19.178;2023-08-21T00:09:53;99178.02;;;20.53;83.77
41102;BME280;26845;50.190;19.178;2023-08-21T00:12:58;99179.08;;;20.42;83.99
41102;BME280;26845;50.190;19.178;2023-08-21T00:16:03;99179.53;;;20.37;84.15
41102;BME280;26845;50.190;19.178;2023-08-21T00:19:09;99172.38;;;20.34;84.69
41102;BME280;26845;50.190;19.178;2023-08-21T00:22:13;99171.92;;;20.31;84.80
41102;BME280;26845;50.190;19.178;2023-08-21T00:25:20;99171.54;;;20.28;85.03
41102;BME280;26845;50.190;19.178;2023-08-21T00:28:24;99168.27;;;20.26;85.02
41102;BME280;26845;50.190;19.178;2023-08-21T00:31:30;99168.44;;;20.22;84.72
41102;BME280;26845;50.190;19.178;2023-08-21T00:34:35;99168.45;;;20.21;84.81
41102;BME280;26845;50.190;19.178;2023-08-21T00:37:41;99159.85;;;20.19;84.89
41102;BME280;26845;50.190;19.178;2023-08-21T00:40:46;99161.37;;;20.18;85.04
41102;BME280;26845;50.190;19.178;2023-08-21T00:43:52;99166.08;;;20.17;85.01
41102;BME280;26845;50.190;19.178;2023-08-21T00:46:37;99164.86;;;20.16;84.99
41102;BME280;26845;50.190;19.178;2023-08-21T00:49:43;99167.23;;;20.15;84.82
41102;BME280;26845;50.190;19.178;2023-08-21T00:52:44;99168.81;;;20.17;85.32
41102;BME280;26845;50.190;19.178;2023-08-21T00:55:48;99169.80;;;20.17;85.23
41102;BME280;26845;50.190;19.178;2023-08-21T00:58:54;99175.29;;;20.18;85.47
41102;BME280;26845;50.190;19.178;2023-08-21T01:01:59;99171.30;;;20.23;85.68
41102;BME280;26845;50.190;19.178;2023-08-21T01:05:05;99170.52;;;20.29;85.98
41102;BME280;26845;50.190;19.178;2023-08-21T01:08:14;99170.60;;;20.29;85.88
41102;BME280;26845;50.190;19.178;2023-08-21T01:11:27;99164.34;;;20.22;85.70
41102;BME280;26845;50.190;19.178;2023-08-21T01:14:36;99167.86;;;20.14;85.59
41102;BME280;26845;50.190;19.178;2023-08-21T01:17:39;99170.80;;;20.08;85.65
41102;BME280;26845;50.190;19.178;2023-08-21T01:20:44;99166.28;;;20.07;86.00
41102;BME280;26845;50.190;19.178;2023-08-21T01:23:50;99165.45;;;20.13;86.41
41102;BME280;26845;50.190;19.178;2023-08-21T01:26:55;99166.30;;;20.16;86.19
41102;BME280;26845;50.190;19.178;2023-08-21T01:30:02;99172.85;;;20.12;85.93
41102;BME280;26845;50.190;19.178;2023-08-21T01:33:08;99175.65;;;20.04;85.66
41102;BME280;26845;50.190;19.178;2023-08-21T01:36:12;99170.94;;;19.91;85.82
41102;BME280;26845;50.190;19.178;2023-08-21T01:39:18;99176.77;;;19.77;85.91
41102;BME280;26845;50.190;19.178;2023-08-21T01:42:23;99174.55;;;19.67;86.35
41102;BME280;26845;50.190;19.178;2023-08-21T01:45:29;99171.13;;;19.60;86.27
41102;BME280;26845;50.190;19.178;2023-08-21T01:48:35;99171.44;;;19.56;86.56
41102;BME280;26845;50.190;19.178;2023-08-21T01:51:40;99176.14;;;19.52;86.69
41102;BME280;26845;50.190;19.178;2023-08-21T01:54:50;99164.59;;;19.55;87.05
41102;BME280;26845;50.190;19.178;2023-08-21T01:57:54;99165.59;;;19.61;87.11
41102;BME280;26845;50.190;19.178;2023-08-21T02:01:00;99164.43;;;19.63;87.15
41102;BME280;26845;50.190;19.178;2023-08-21T02:04:08;99166.19;;;19.65;87.04
41102;BME280;26845;50.190;19.178;2023-08-21T02:07:14;99168.21;;;19.65;87.06
41102;BME280;26845;50.190;19.178;2023-08-21T02:10:19;99165.65;;;19.66;87.12
41102;BME280;26845;50.190;19.178;2023-08-21T02:13:27;99170.05;;;19.68;86.82
41102;BME280;26845;50.190;19.178;2023-08-21T02:16:33;99168.23;;;19.66;86.74
41102;BME280;26845;50.190;19.178;2023-08-21T02:19:39;99161.54;;;19.66;86.87
41102;BME280;26845;50.190;19.178;2023-08-21T02:22:44;99158.60;;;19.61;86.78
41102;BME280;26845;50.190;19.178;2023-08-21T02:25:50;99154.04;;;19.55;86.66
41102;BME280;26845;50.190;19.178;2023-08-21T02:28:55;99151.90;;;19.53;86.95
41102;BME280;26845;50.190;19.178;2023-08-21T02:32:01;99148.77;;;19.54;87.12
41102;BME280;26845;50.190;19.178;2023-08-21T02:35:07;99150.36;;;19.53;86.91
41102;BME280;26845;50.190;19.178;2023-08-21T02:37:58;99147.67;;;19.48;86.66
41102;BME280;26845;50.190;19.178;2023-08-21T02:41:04;99155.16;;;19.34;86.60
41102;BME280;26845;50.190;19.178;2023-08-21T02:44:10;99151.77;;;19.17;86.79
41102;BME280;26845;50.190;19.178;2023-08-21T02:47:21;99144.59;;;18.99;86.97
41102;BME280;26845;50.190;19.178;2023-08-21T02:50:26;99143.28;;;18.92;87.31
41102;BME280;26845;50.190;19.178;2023-08-21T02:53:32;99139.52;;;18.92;87.64
41102;BME280;26845;50.190;19.178;2023-08-21T02:56:37;99136.07;;;18.96;87.92
41102;BME280;26845;50.190;19.178;2023-08-21T02:59:43;99135.92;;;19.00;87.90
41102;BME280;26845;50.190;19.178;2023-08-21T03:02:28;99133.65;;;18.99;88.01
41102;BME280;26845;50.190;19.178;2023-08-21T03:05:33;99128.41;;;18.99;88.35
41102;BME280;26845;50.190;19.178;2023-08-21T03:08:39;99128.45;;;19.00;88.52
41102;BME280;26845;50.190;19.178;2023-08-21T03:11:45;99135.54;;;19.01;88.38
41102;BME280;26845;50.190;19.178;2023-08-21T03:14:52;99139.25;;;18.98;88.36
41102;BME280;26845;50.190;19.178;2023-08-21T03:17:57;99141.34;;;18.95;88.41
41102;BME280;26845;50.190;19.178;2023-08-21T03:21:03;99144.10;;;18.93;88.10
41102;BME280;26845;50.190;19.178;2023-08-21T03:24:09;99143.38;;;18.86;88.24
41102;BME280;26845;50.190;19.178;2023-08-21T03:27:15;99142.51;;;18.80;88.61
41102;BME280;26845;50.190;19.178;2023-08-21T03:30:20;99143.23;;;18.77;88.80
41102;BME280;26845;50.190;19.178;2023-08-21T03:33:25;99151.03;;;18.77;88.96
41102;BME280;26845;50.190;19.178;2023-08-21T03:36:31;99150.41;;;18.78;88.87
41102;BME280;26845;50.190;19.178;2023-08-21T03:39:39;99157.61;;;18.79;88.64
41102;BME280;26845;50.190;19.178;2023-08-21T03:42:44;99157.30;;;18.80;88.93
41102;BME280;26845;50.190;19.178;2023-08-21T03:45:50;99156.92;;;18.78;88.98
41102;BME280;26845;50.190;19.178;2023-08-21T03:48:56;99158.24;;;18.79;89.10
41102;BME280;26845;50.190;19.178;2023-08-21T03:52:01;99160.16;;;18.78;89.06
41102;BME280;26845;50.190;19.178;2023-08-21T03:55:06;99162.41;;;18.78;88.94
41102;BME280;26845;50.190;19.178;2023-08-21T03:58:13;99157.98;;;18.81;89.16
41102;BME280;26845;50.190;19.178;2023-08-21T04:01:17;99153.36;;;18.83;89.27
41102;BME280;26845;50.190;19.178;2023-08-21T04:04:23;99152.14;;;18.85;89.19
41102;BME280;26845;50.190;19.178;2023-08-21T04:07:28;99150.14;;;18.89;89.48
41102;BME280;26845;50.190;19.178;2023-08-21T04:10:34;99153.02;;;18.92;89.39
41102;BME280;26845;50.190;19.178;2023-08-21T04:13:39;99150.06;;;18.93;89.43
41102;BME280;26845;50.190;19.178;2023-08-21T04:16:45;99151.94;;;18.94;89.37
41102;BME280;26845;50.190;19.178;2023-08-21T04:19:50;99152.73;;;18.96;89.61
41102;BME280;26845;50.190;19.178;2023-08-21T04:22:56;99147.09;;;18.99;89.53
41102;BME280;26845;50.190;19.178;2023-08-21T04:26:02;99151.21;;;18.96;89.44
41102;BME280;26845;50.190;19.178;2023-08-21T04:29:07;99154.27;;;18.94;89.70
41102;BME280;26845;50.190;19.178;2023-08-21T04:32:13;99156.44;;;18.93;89.89
41102;BME280;26845;50.190;19.178;2023-08-21T04:35:18;99155.39;;;18.97;90.01
41102;BME280;26845;50.190;19.178;2023-08-21T04:38:24;99150.81;;;19.00;90.16
41102;BME280;26845;50.190;19.178;2023-08-21T04:41:29;99143.92;;;19.04;90.39
41102;BME280;26845;50.190;19.178;2023-08-21T04:44:35;99146.72;;;19.07;90.42
41102;BME280;26845;50.190;19.178;2023-08-21T04:47:40;99143.61;;;19.15;90.64
41102;BME280;26845;50.190;19.178;2023-08-21T04:50:46;99143.95;;;19.23;90.83
41102;BME280;26845;50.190;19.178;2023-08-21T04:53:52;99137.96;;;19.31;90.91
41102;BME280;26845;50.190;19.178;2023-08-21T04:56:57;99142.45;;;19.38;90.98
41102;BME280;26845;50.190;19.178;2023-08-21T05:00:03;99141.98;;;19.42;91.00
41102;BME280;26845;50.190;19.178;2023-08-21T05:03:09;99145.75;;;19.45;91.04
41102;BME280;26845;50.190;19.178;2023-08-21T05:06:18;99146.60;;;19.50;91.36
41102;BME280;26845;50.190;19.178;2023-08-21T05:09:23;99153.45;;;19.57;91.52
41102;BME280;26845;50.190;19.178;2023-08-21T05:12:29;99157.38;;;19.67;92.00
41102;BME280;26845;50.190;19.178;2023-08-21T05:15:35;99153.85;;;19.82;92.58
41102;BME280;26845;50.190;19.178;2023-08-21T05:18:40;99153.39;;;19.99;92.79
41102;BME280;26845;50.190;19.178;2023-08-21T05:21:46;99151.47;;;20.20;93.29
41102;BME280;26845;50.190;19.178;2023-08-21T05:24:51;99148.59;;;20.38;93.56
41102;BME280;26845;50.190;19.178;2023-08-21T05:27:57;99142.80;;;20.51;93.36
41102;BME280;26845;50.190;19.178;2023-08-21T05:30:31;99146.29;;;20.60;93.26
41102;BME280;26845;50.190;19.178;2023-08-21T05:33:37;99150.21;;;20.68;93.30
41102;BME280;26845;50.190;19.178;2023-08-21T05:36:42;99154.82;;;20.77;93.58
41102;BME280;26845;50.190;19.178;2023-08-21T05:39:48;99151.61;;;20.98;93.99
41102;BME280;26845;50.190;19.178;2023-08-21T05:42:53;99158.05;;;21.11;93.56
41102;BME280;26845;50.190;19.178;2023-08-21T05:45:59;99160.64;;;21.21;93.43
41102;BME280;26845;50.190;19.178;2023-08-21T05:49:04;99167.34;;;21.32;93.42
41102;BME280;26845;50.190;19.178;2023-08-21T05:52:10;99171.73;;;21.47;93.88
41102;BME280;26845;50.190;19.178;2023-08-21T05:55:16;99165.94;;;21.67;93.66
41102;BME280;26845;50.190;19.178;2023-08-21T05:58:22;99164.16;;;21.83;93.60
41102;BME280;26845;50.190;19.178;2023-08-21T06:00:58;99168.18;;;22.02;93.72
41102;BME280;26845;50.190;19.178;2023-08-21T06:03:24;99174.80;;;22.13;93.19
41102;BME280;26845;50.190;19.178;2023-08-21T06:05:51;99180.58;;;22.26;93.33
41102;BME280;26845;50.190;19.178;2023-08-21T06:08:20;99183.69;;;22.38;92.71
41102;BME280;26845;50.190;19.178;2023-08-21T06:10:54;99189.81;;;22.35;91.56
41102;BME280;26845;50.190;19.178;2023-08-21T06:13:59;99190.39;;;22.36;91.85
41102;BME280;26845;50.190;19.178;2023-08-21T06:17:05;99185.40;;;22.53;91.84
41102;BME280;26845;50.190;19.178;2023-08-21T06:20:10;99184.23;;;22.72;91.35
41102;BME280;26845;50.190;19.178;2023-08-21T06:23:08;99184.35;;;22.85;91.01
41102;BME280;26845;50.190;19.178;2023-08-21T06:26:05;99184.01;;;22.93;90.74
41102;BME280;26845;50.190;19.178;2023-08-21T06:29:11;99189.23;;;22.96;90.27
41102;BME280;26845;50.190;19.178;2023-08-21T06:32:17;99197.94;;;22.93;89.95
41102;BME280;26845;50.190;19.178;2023-08-21T06:35:22;99200.17;;;22.89;89.62
41102;BME280;26845;50.190;19.178;2023-08-21T06:38:28;99204.58;;;22.85;89.67
41102;BME280;26845;50.190;19.178;2023-08-21T06:41:34;99203.38;;;22.84;89.53
41102;BME280;26845;50.190;19.178;2023-08-21T06:44:31;99202.29;;;22.89;89.70
41102;BME280;26845;50.190;19.178;2023-08-21T06:46:57;99203.89;;;22.96;89.90
41102;BME280;26845;50.190;19.178;2023-08-21T06:49:23;99206.89;;;23.02;89.91
41102;BME280;26845;50.190;19.178;2023-08-21T06:51:49;99213.23;;;23.05;89.78
41102;BME280;26845;50.190;19.178;2023-08-21T06:54:16;99221.27;;;23.06;89.92
41102;BME280;26845;50.190;19.178;2023-08-21T06:56:43;99224.50;;;23.06;89.82
41102;BME280;26845;50.190;19.178;2023-08-21T06:59:09;99223.36;;;23.05;89.64
41102;BME280;26845;50.190;19.178;2023-08-21T07:01:35;99221.85;;;23.09;89.93
41102;BME280;26845;50.190;19.178;2023-08-21T07:04:01;99228.89;;;23.17;89.94
41102;BME280;26845;50.190;19.178;2023-08-21T07:06:28;99233.35;;;23.27;90.42
41102;BME280;26845;50.190;19.178;2023-08-21T07:08:54;99240.02;;;23.40;90.49
41102;BME280;26845;50.190;19.178;2023-08-21T07:11:20;99240.52;;;23.51;90.46
41102;BME280;26845;50.190;19.178;2023-08-21T07:13:46;99250.66;;;23.63;90.33
41102;BME280;26845;50.190;19.178;2023-08-21T07:16:13;99246.02;;;23.70;90.47
41102;BME280;26845;50.190;19.178;2023-08-21T07:18:39;99253.30;;;23.76;90.46
41102;BME280;26845;50.190;19.178;2023-08-21T07:21:05;99247.67;;;23.86;90.34
41102;BME280;26845;50.190;19.178;2023-08-21T07:23:32;99250.15;;;23.92;90.18
41102;BME280;26845;50.190;19.178;2023-08-21T07:25:59;99253.17;;;23.97;89.83
41102;BME280;26845;50.190;19.178;2023-08-21T07:28:25;99251.42;;;24.03;89.92
41102;BME280;26845;50.190;19.178;2023-08-21T07:30:55;99249.41;;;24.07;89.64
41102;BME280;26845;50.190;19.178;2023-08-21T07:33:22;99250.19;;;24.12;89.51
41102;BME280;26845;50.190;19.178;2023-08-21T07:35:48;99248.67;;;24.18;89.59
41102;BME280;26845;50.190;19.178;2023-08-21T07:38:22;99256.09;;;24.25;89.27
41102;BME280;26845;50.190;19.178;2023-08-21T07:40:48;99258.21;;;24.29;88.72
41102;BME280;26845;50.190;19.178;2023-08-21T07:43:14;99258.95;;;24.29;88.40
41102;BME280;26845;50.190;19.178;2023-08-21T07:45:40;99259.77;;;24.33;88.60
41102;BME280;26845;50.190;19.178;2023-08-21T07:48:06;99261.84;;;24.38;88.24
41102;BME280;26845;50.190;19.178;2023-08-21T07:50:33;99265.27;;;24.42;88.17
41102;BME280;26845;50.190;19.178;2023-08-21T07:52:59;99266.45;;;24.47;88.02
41102;BME280;26845;50.190;19.178;2023-08-21T07:55:25;99267.85;;;24.54;87.82
41102;BME280;26845;50.190;19.178;2023-08-21T07:57:52;99266.23;;;24.56;87.61
41102;BME280;26845;50.190;19.178;2023-08-21T08:00:18;99266.17;;;24.61;87.64
41102;BME280;26845;50.190;19.178;2023-08-21T08:02:44;99260.02;;;24.63;87.05
41102;BME280;26845;50.190;19.178;2023-08-21T08:05:11;99259.94;;;24.67;87.14
41102;BME280;26845;50.190;19.178;2023-08-21T08:07:37;99262.57;;;24.79;87.31
41102;BME280;26845;50.190;19.178;2023-08-21T08:10:11;99259.21;;;24.97;87.56
41102;BME280;26845;50.190;19.178;2023-08-21T08:12:57;99257.91;;;25.04;86.58
41102;BME280;26845;50.190;19.178;2023-08-21T08:15:42;99260.61;;;25.06;86.67
41102;BME280;26845;50.190;19.178;2023-08-21T08:18:47;99266.79;;;25.10;86.20
41102;BME280;26845;50.190;19.178;2023-08-21T08:21:53;99268.29;;;25.17;85.88
41102;BME280;26845;50.190;19.178;2023-08-21T08:24:58;99264.06;;;25.18;85.79
41102;BME280;26845;50.190;19.178;2023-08-21T08:28:04;99262.46;;;25.35;86.23
41102;BME280;26845;50.190;19.178;2023-08-21T08:31:15;99258.31;;;25.49;85.53
41102;BME280;26845;50.190;19.178;2023-08-21T08:34:20;99257.56;;;25.56;85.20
41102;BME280;26845;50.190;19.178;2023-08-21T08:37:26;99259.29;;;25.61;84.87
41102;BME280;26845;50.190;19.178;2023-08-21T08:40:31;99254.33;;;25.64;84.62
41102;BME280;26845;50.190;19.178;2023-08-21T08:43:17;99253.91;;;25.66;84.29
41102;BME280;26845;50.190;19.178;2023-08-21T08:45:51;99252.05;;;25.61;84.23
41102;BME280;26845;50.190;19.178;2023-08-21T08:48:38;99251.89;;;25.55;83.91
41102;BME280;26845;50.190;19.178;2023-08-21T08:51:06;99248.06;;;25.58;84.46
41102;BME280;26845;50.190;19.178;2023-08-21T08:54:09;99242.61;;;25.65;84.22
41102;BME280;26845;50.190;19.178;2023-08-21T08:56:42;99243.67;;;25.78;84.71
41102;BME280;26845;50.190;19.178;2023-08-21T08:59:48;99242.69;;;26.18;84.49
41102;BME280;26845;50.190;19.178;2023-08-21T09:02:53;99252.45;;;26.41;83.32
41102;BME280;26845;50.190;19.178;2023-08-21T09:05:58;99255.45;;;26.46;82.96
41102;BME280;26845;50.190;19.178;2023-08-21T09:09:04;99250.09;;;26.43;82.74
41102;BME280;26845;50.190;19.178;2023-08-21T09:12:10;99255.48;;;26.38;82.71
41102;BME280;26845;50.190;19.178;2023-08-21T09:15:14;99258.80;;;26.41;82.83
41102;BME280;26845;50.190;19.178;2023-08-21T09:18:20;99256.91;;;26.46;82.34
41102;BME280;26845;50.190;19.178;2023-08-21T09:21:25;99249.89;;;26.57;82.10
41102;BME280;26845;50.190;19.178;2023-08-21T09:24:10;99241.92;;;26.97;82.90
41102;BME280;26845;50.190;19.178;2023-08-21T09:27:16;99240.98;;;27.30;82.10
41102;BME280;26845;50.190;19.178;2023-08-21T09:30:21;99244.17;;;27.42;81.49
41102;BME280;26845;50.190;19.178;2023-08-21T09:33:26;99238.86;;;27.51;80.40
41102;BME280;26845;50.190;19.178;2023-08-21T09:36:32;99227.27;;;27.53;80.31
41102;BME280;26845;50.190;19.178;2023-08-21T09:39:37;99229.83;;;27.76;80.28
41102;BME280;26845;50.190;19.178;2023-08-21T09:42:23;99224.94;;;28.15;80.97
41102;BME280;26845;50.190;19.178;2023-08-21T09:45:27;99222.10;;;28.67;80.28
41102;BME280;26845;50.190;19.178;2023-08-21T09:48:24;99220.88;;;28.74;78.29
41102;BME280;26845;50.190;19.178;2023-08-21T09:51:26;99227.08;;;28.75;79.12
41102;BME280;26845;50.190;19.178;2023-08-21T09:54:12;99218.83;;;28.80;78.57
41102;BME280;26845;50.190;19.178;2023-08-21T09:57:04;99216.30;;;28.85;78.62
41102;BME280;26845;50.190;19.178;2023-08-21T09:59:52;99213.98;;;28.92;78.37
41102;BME280;26845;50.190;19.178;2023-08-21T10:03:08;99209.66;;;29.04;78.13
41102;BME280;26845;50.190;19.178;2023-08-21T10:05:57;99208.10;;;29.25;77.59
41102;BME280;26845;50.190;19.178;2023-08-21T10:08:44;99207.27;;;29.54;76.76
41102;BME280;26845;50.190;19.178;2023-08-21T10:11:16;99203.98;;;29.71;76.01
41102;BME280;26845;50.190;19.178;2023-08-21T10:14:06;99201.73;;;29.86;75.76
41102;BME280;26845;50.190;19.178;2023-08-21T10:16:41;99208.81;;;30.09;76.09
41102;BME280;26845;50.190;19.178;2023-08-21T10:19:14;99210.86;;;30.38;75.15
41102;BME280;26845;50.190;19.178;2023-08-21T10:21:59;99209.64;;;30.65;75.04
41102;BME280;26845;50.190;19.178;2023-08-21T10:24:35;99208.96;;;30.85;74.12
41102;BME280;26845;50.190;19.178;2023-08-21T10:27:03;99204.32;;;31.01;73.79
41102;BME280;26845;50.190;19.178;2023-08-21T10:29:57;99203.09;;;30.98;72.75
41102;BME280;26845;50.190;19.178;2023-08-21T10:32:46;99201.16;;;30.82;71.78
41102;BME280;26845;50.190;19.178;2023-08-21T10:35:32;99202.08;;;30.62;70.24
41102;BME280;26845;50.190;19.178;2023-08-21T10:38:18;99203.29;;;30.19;67.92
41102;BME280;26845;50.190;19.178;2023-08-21T10:41:07;99199.33;;;30.08;69.87
41102;BME280;26845;50.190;19.178;2023-08-21T10:43:53;99203.03;;;30.29;69.63
41102;BME280;26845;50.190;19.178;2023-08-21T10:46:50;99204.02;;;30.41;68.33
41102;BME280;26845;50.190;19.178;2023-08-21T10:49:35;99203.12;;;30.41;68.75
41102;BME280;26845;50.190;19.178;2023-08-21T10:52:30;99201.92;;;30.54;69.29
41102;BME280;26845;50.190;19.178;2023-08-21T10:55:30;99201.58;;;30.66;69.54
41102;BME280;26845;50.190;19.178;2023-08-21T10:58:06;99203.96;;;30.69;68.79
41102;BME280;26845;50.190;19.178;2023-08-21T11:00:56;99203.36;;;30.60;68.17
41102;BME280;26845;50.190;19.178;2023-08-21T11:03:51;99196.80;;;30.41;67.61
41102;BME280;26845;50.190;19.178;2023-08-21T11:06:54;99192.76;;;30.17;68.82
41102;BME280;26845;50.190;19.178;2023-08-21T11:09:53;99192.33;;;29.98;67.34
41102;BME280;26845;50.190;19.178;2023-08-21T11:12:33;99187.52;;;29.63;67.40
41102;BME280;26845;50.190;19.178;2023-08-21T11:15:28;99187.40;;;29.35;68.10
41102;BME280;26845;50.190;19.178;2023-08-21T11:18:02;99182.63;;;29.32;68.66
41102;BME280;26845;50.190;19.178;2023-08-21T11:21:18;99178.39;;;29.32;69.88
41102;BME280;26845;50.190;19.178;2023-08-21T11:23:50;99177.66;;;29.26;70.15
41102;BME280;26845;50.190;19.178;2023-08-21T11:26:55;99180.20;;;29.22;70.66
41102;BME280;26845;50.190;19.178;2023-08-21T11:29:42;99178.81;;;29.16;70.42
41102;BME280;26845;50.190;19.178;2023-08-21T11:32:10;99175.98;;;29.09;69.77
41102;BME280;26845;50.190;19.178;2023-08-21T11:34:56;99174.89;;;29.06;70.39
41102;BME280;26845;50.190;19.178;2023-08-21T11:37:50;99170.88;;;29.06;69.89
41102;BME280;26845;50.190;19.178;2023-08-21T11:40:21;99175.04;;;29.07;70.34
41102;BME280;26845;50.190;19.178;2023-08-21T11:43:02;99182.41;;;29.11;71.47
41102;BME280;26845;50.190;19.178;2023-08-21T11:45:46;99179.18;;;29.13;71.61
41102;BME280;26845;50.190;19.178;2023-08-21T11:48:35;99184.10;;;29.17;71.70
41102;BME280;26845;50.190;19.178;2023-08-21T11:51:39;99183.86;;;29.18;70.91
41102;BME280;26845;50.190;19.178;2023-08-21T11:54:24;99182.10;;;29.20;71.20
41102;BME280;26845;50.190;19.178;2023-08-21T11:56:52;99176.29;;;29.25;70.99
41102;BME280;26845;50.190;19.178;2023-08-21T11:59:37;99178.34;;;29.34;70.65
41102;BME280;26845;50.190;19.178;2023-08-21T12:02:14;99175.59;;;29.51;70.88
41102;BME280;26845;50.190;19.178;2023-08-21T12:05:07;99170.33;;;29.76;71.15
41102;BME280;26845;50.190;19.178;2023-08-21T12:07:40;99170.27;;;29.93;70.36
41102;BME280;26845;50.190;19.178;2023-08-21T12:10:24;99167.92;;;30.03;69.76
41102;BME280;26845;50.190;19.178;2023-08-21T12:13:12;99167.57;;;30.21;69.76
41102;BME280;26845;50.190;19.178;2023-08-21T12:15:59;99172.02;;;30.40;69.36
41102;BME280;26845;50.190;19.178;2023-08-21T12:18:35;99170.27;;;30.66;68.01
41102;BME280;26845;50.190;19.178;2023-08-21T12:21:09;99178.36;;;31.00;68.35
41102;BME280;26845;50.190;19.178;2023-08-21T12:24:15;99181.05;;;31.44;68.21
41102;BME280;26845;50.190;19.178;2023-08-21T12:26:52;99180.33;;;31.87;66.95
41102;BME280;26845;50.190;19.178;2023-08-21T12:29:26;99181.48;;;32.02;64.96
41102;BME280;26845;50.190;19.178;2023-08-21T12:31:59;99182.17;;;31.98;61.74
41102;BME280;26845;50.190;19.178;2023-08-21T12:34:44;99176.58;;;31.83;62.46
41102;BME280;26845;50.190;19.178;2023-08-21T12:37:18;99182.42;;;31.76;58.98
41102;BME280;26845;50.190;19.178;2023-08-21T12:39:53;99176.04;;;31.64;60.39
41102;BME280;26845;50.190;19.178;2023-08-21T12:42:49;99171.27;;;31.81;62.39
41102;BME280;26845;50.190;19.178;2023-08-21T12:45:55;99169.39;;;32.28;62.32
41102;BME280;26845;50.190;19.178;2023-08-21T12:48:31;99163.66;;;32.61;60.37
41102;BME280;26845;50.190;19.178;2023-08-21T12:51:37;99161.54;;;32.71;60.65
41102;BME280;26845;50.190;19.178;2023-08-21T12:54:11;99162.88;;;33.04;60.53
41102;BME280;26845;50.190;19.178;2023-08-21T12:57:16;99160.48;;;32.91;57.54
41102;BME280;26845;50.190;19.178;2023-08-21T13:00:22;99156.00;;;32.85;58.74
41102;BME280;26845;50.190;19.178;2023-08-21T13:03:27;99152.86;;;33.04;59.12
41102;BME280;26845;50.190;19.178;2023-08-21T13:06:33;99153.14;;;33.20;57.58
41102;BME280;26845;50.190;19.178;2023-08-21T13:09:38;99146.09;;;32.89;54.91
41102;BME280;26845;50.190;19.178;2023-08-21T13:12:34;99137.51;;;32.64;55.38
41102;BME280;26845;50.190;19.178;2023-08-21T13:15:39;99133.81;;;32.42;55.20
41102;BME280;26845;50.190;19.178;2023-08-21T13:18:13;99128.14;;;32.42;55.83
41102;BME280;26845;50.190;19.178;2023-08-21T13:21:11;99129.02;;;32.47;55.07
41102;BME280;26845;50.190;19.178;2023-08-21T13:23:55;99127.80;;;32.45;55.00
41102;BME280;26845;50.190;19.178;2023-08-21T13:27:00;99131.94;;;32.28;53.35
41102;BME280;26845;50.190;19.178;2023-08-21T13:29:41;99129.55;;;32.23;53.67
41102;BME280;26845;50.190;19.178;2023-08-21T13:32:25;99121.76;;;32.25;53.84
41102;BME280;26845;50.190;19.178;2023-08-21T13:35:22;99118.56;;;32.63;55.12
41102;BME280;26845;50.190;19.178;2023-08-21T13:37:55;99119.00;;;33.00;55.61
41102;BME280;26845;50.190;19.178;2023-08-21T13:40:38;99110.33;;;33.36;55.03
41102;BME280;26845;50.190;19.178;2023-08-21T13:43:08;99110.81;;;33.26;52.92
41102;BME280;26845;50.190;19.178;2023-08-21T13:45:42;99105.20;;;33.20;54.11
41102;BME280;26845;50.190;19.178;2023-08-21T13:48:26;99107.05;;;33.32;54.44
41102;BME280;26845;50.190;19.178;2023-08-21T13:50:59;99104.61;;;33.49;54.64
41102;BME280;26845;50.190;19.178;2023-08-21T13:53:33;99096.71;;;33.65;54.66
41102;BME280;26845;50.190;19.178;2023-08-21T13:56:39;99092.86;;;33.82;54.58
41102;BME280;26845;50.190;19.178;2023-08-21T13:59:15;99094.83;;;34.01;54.15
41102;BME280;26845;50.190;19.178;2023-08-21T14:01:49;99092.97;;;34.13;53.44
41102;BME280;26845;50.190;19.178;2023-08-21T14:04:23;99092.76;;;34.14;53.50
41102;BME280;26845;50.190;19.178;2023-08-21T14:06:56;99085.64;;;34.10;52.36
41102;BME280;26845;50.190;19.178;2023-08-21T14:09:30;99082.60;;;34.06;52.21
41102;BME280;26845;50.190;19.178;2023-08-21T14:12:29;99081.59;;;33.91;48.82
41102;BME280;26845;50.190;19.178;2023-08-21T14:15:11;99081.70;;;33.33;49.83
41102;BME280;26845;50.190;19.178;2023-08-21T14:18:11;99079.27;;;33.15;51.26
41102;BME280;26845;50.190;19.178;2023-08-21T14:21:16;99078.05;;;33.05;49.17
41102;BME280;26845;50.190;19.178;2023-08-21T14:23:54;99078.50;;;32.67;49.15
41102;BME280;26845;50.190;19.178;2023-08-21T14:26:34;99071.42;;;32.51;50.81
41102;BME280;26845;50.190;19.178;2023-08-21T14:29:08;99065.08;;;32.52;50.52
41102;BME280;26845;50.190;19.178;2023-08-21T14:31:43;99057.75;;;32.73;51.46
41102;BME280;26845;50.190;19.178;2023-08-21T14:34:49;99060.73;;;32.96;50.89
41102;BME280;26845;50.190;19.178;2023-08-21T14:37:56;99060.47;;;32.87;50.60
41102;BME280;26845;50.190;19.178;2023-08-21T14:41:01;99056.96;;;32.91;50.48
41102;BME280;26845;50.190;19.178;2023-08-21T14:43:35;99056.42;;;32.88;49.90
41102;BME280;26845;50.190;19.178;2023-08-21T14:46:40;99059.30;;;32.58;49.95
41102;BME280;26845;50.190;19.178;2023-08-21T14:49:45;99057.31;;;32.24;49.81
41102;BME280;26845;50.190;19.178;2023-08-21T14:52:28;99057.98;;;31.97;49.08
41102;BME280;26845;50.190;19.178;2023-08-21T14:55:34;99054.61;;;31.74;49.81
41102;BME280;26845;50.190;19.178;2023-08-21T14:58:40;99056.92;;;31.70;51.30
41102;BME280;26845;50.190;19.178;2023-08-21T15:01:45;99051.54;;;31.95;51.31
41102;BME280;26845;50.190;19.178;2023-08-21T15:04:29;99047.30;;;31.94;51.69